createdAt,value
2022-08-05T00:01:00.935Z,11.00
2022-08-05T00:03:46.683Z,11.15
2022-08-05T00:06:27.755Z,8.75
2022-08-05T00:08:59.131Z,12.40
2022-08-05T00:11:34.695Z,14.05
2022-08-05T00:14:02.375Z,9.85
2022-08-05T00:16:52.804Z,9.93
2022-08-05T00:19:22.147Z,9.90
2022-08-05T00:21:50.422Z,9.75
2022-08-05T00:24:24.260Z,10.20
2022-08-05T00:26:52.855Z,11.38
2022-08-05T00:29:22.779Z,11.85
2022-08-05T00:32:09.332Z,9.60
2022-08-05T00:34:55.635Z,11.57
2022-08-05T00:37:27.393Z,10.60
2022-08-05T00:40:13.630Z,11.85
2022-08-05T00:42:48.261Z,9.32
2022-08-05T00:45:16.622Z,9.93
2022-08-05T00:47:57.808Z,8.63
2022-08-05T00:50:32.415Z,9.70
2022-08-05T00:53:00.402Z,10.13
2022-08-05T00:55:42.081Z,9.50
2022-08-05T00:58:11.352Z,11.25
2022-08-05T01:00:39.128Z,10.15
2022-08-05T01:03:07.669Z,10.40
2022-08-05T01:05:35.202Z,9.80
2022-08-05T01:08:40.996Z,11.45
2022-08-05T01:10:54.733Z,12.20
2022-08-05T01:13:59.081Z,8.90
2022-08-05T01:16:26.202Z,10.97
2022-08-05T01:19:14.343Z,10.30
2022-08-05T01:22:23.847Z,10.18
2022-08-05T01:25:14.687Z,10.15
2022-08-05T01:28:13.934Z,9.75
2022-08-05T01:30:50.596Z,11.88
2022-08-05T01:33:25.176Z,10.93
2022-08-05T01:35:55.550Z,11.97
2022-08-05T01:38:29.225Z,10.05
2022-08-05T01:40:59.663Z,9.52
2022-08-05T01:43:28.136Z,10.73
2022-08-05T01:45:56.797Z,10.13
2022-08-05T01:48:25.903Z,9.13
2022-08-05T01:50:55.381Z,10.17
2022-08-05T01:53:57.148Z,11.13
2022-08-05T01:56:13.747Z,11.95
2022-08-05T01:59:04.619Z,14.85
2022-08-05T02:01:39.882Z,13.75
2022-08-05T02:04:09.102Z,13.68
2022-08-05T02:06:38.776Z,14.27
2022-08-05T02:09:06.406Z,15.73
2022-08-05T02:11:42.499Z,16.83
2022-08-05T02:14:26.290Z,13.52
2022-08-05T02:16:59.246Z,12.48
2022-08-05T21:56:01.294Z,8.80
2022-08-05T21:58:16.408Z,8.25
2022-08-05T22:00:51.383Z,8.45
2022-08-05T22:03:18.310Z,8.18
2022-08-05T22:06:05.191Z,8.10
2022-08-05T22:08:32.438Z,8.23
2022-08-05T22:11:00.508Z,8.67
2022-08-05T22:14:05.803Z,7.88
2022-08-05T22:16:39.506Z,8.85
2022-08-05T22:19:01.011Z,9.30
2022-08-05T22:21:27.789Z,8.00
2022-08-05T22:24:01.969Z,9.13
2022-08-05T22:26:36.850Z,9.07
2022-08-05T22:29:03.596Z,8.65
2022-08-05T22:31:30.631Z,9.95
2022-08-05T22:34:01.611Z,9.63
2022-08-05T22:36:29.181Z,7.22
2022-08-05T22:38:55.966Z,8.60
2022-08-05T22:41:26.475Z,8.00
2022-08-05T22:44:12.295Z,8.85
2022-08-05T22:46:39.626Z,8.95
2022-08-05T22:49:07.848Z,9.80
2022-08-05T22:52:06.328Z,7.45
2022-08-05T22:54:26.303Z,7.82
2022-08-05T22:56:54.395Z,7.20
2022-08-05T22:59:44.273Z,7.13
2022-08-05T23:02:09.989Z,10.10
2022-08-05T23:04:37.076Z,9.45
2022-08-05T23:07:04.845Z,9.15
2022-08-05T23:09:58.399Z,7.20
2022-08-05T23:12:20.294Z,8.13
2022-08-05T23:14:52.038Z,7.63
2022-08-05T23:17:23.935Z,6.97
2022-08-05T23:19:56.133Z,7.70
2022-08-05T23:22:27.097Z,6.15
2022-08-05T23:24:54.778Z,6.38
2022-08-05T23:27:21.411Z,7.35
2022-08-05T23:29:50.604Z,6.85
2022-08-05T23:32:22.889Z,9.00
2022-08-05T23:34:50.836Z,8.25
2022-08-05T23:37:17.792Z,8.02
2022-08-05T23:39:54.629Z,6.88
2022-08-05T23:42:23.483Z,8.55
2022-08-05T23:44:56.660Z,7.53
2022-08-05T23:47:25.409Z,7.93
2022-08-05T23:49:56.326Z,6.00
2022-08-05T23:52:25.253Z,6.32
2022-08-05T23:54:52.858Z,7.15
2022-08-05T23:57:19.464Z,6.05
